หน้าหลัก
METAR-TAF:

METAR-TAF

ท่าอากาศยาน :

ท่าอากาศยานนานาชาติบรูไน

ประเทศบรูไน, บรูไน

ละติจูด: 04-56N, ลองจิจูด: 114-56E, ความสูง: 22 ม.

การสังเกตสภาพอากาศปัจจุบัน

รายงานได้ทำขึ้นเมื่อ 30 นาทีที่แล้ว ณ เวลา 05:00 UTC
ลม 4 นอตจากเหนือ
อุณหภูมิ 34°C
ความชื้น 71%
ความกดอากาศ 1007 hPa
ทัศนวิสัย 10 กม. หรือมากกว่า
มีเมฆกระจายเป็นบางส่วนที่ความสูง 1500 ฟุต
มีเมฆเป็นส่วนมากเว้นเป็นระยะที่ความสูง 30000 ฟุต

METAR: WBSB 250500Z 36004KT 9999 SCT015 BKN300 34/28 Q1007 NOSIG

เวลา: 13:30 (05:30 UTC)

การพยากรณ์

รายงานได้ทำขึ้นเมื่อ 6 ชั่วโมงและ 30 นาทีที่แล้ว ณ เวลา 23:00 UTC
การพยากรณ์มีผลตั้งแต่วันที่ 25 ณ เวลา 00 UTC จนถึงวันที่ 26 ณ เวลา 06 UTC
ลม 3 นอตจากใต้
ทัศนวิสัย 10 กม. หรือมากกว่า
มีเมฆน้อยที่ความสูง 1400 ฟุต
มีเมฆเป็นส่วนมากเว้นเป็นระยะที่ความสูง 14000 ฟุต
กำลังกลายเป็น
ตั้งแต่วันที่ 25 ณ เวลา 03 UTC จนถึงวันที่ 25 ณ เวลา 05 UTC
ลม 10 นอตจากเหนือ/ตะวันตกเฉียงเหนือ
มีเมฆน้อยที่ความสูง 1500 ฟุต
มีเมฆน้อยที่ความสูง 1600 ฟุต, คิวมูโลนิมบัส.

TAF: WBSB 242300Z 2500/2606 18003KT 9999 FEW014 BKN140 BECMG 2503/2505 33010KT FEW015 FEW016CB

สังเกตการณ์สภาพอากาศและพยากรณ์อากาศของสนามบินมากกว่า 4000 แห่ง (รายงาน METAR และ TAF).

สถานีที่ดูได้จะแสดงไว้ด้วยจุดสีเหลืองและสีแดงบนแผนที่.

เลื่อนเมาส์ไปเหนือจุดเพื่อดูชื่อสถานี.

แล้วคลิกเพื่อดูสังเกตการณ์และการพยากรณ์สภาพอากาศ.

ในการเปลี่ยนแผนที่: คลิกที่ปุ่มสีเขียวที่มีกากบาทสีดำเพื่อซูมเข้า; ที่ปุ่มสีเขียวที่มีขีดเพื่อซูมออก; หรือที่ลูกศรสีเขียวเพื่อไปยังแผนที่ที่อยู่ติดกัน.


METAR-TAF: